sensor_id;sensor_type;location;lat;lon;timestamp;temperature;humidity
4390;DHT22;2209;48.982;8.406;2023-07-31T00:00:59;21.30;98.00
4390;DHT22;2209;48.982;8.406;2023-07-31T00:03:21;21.30;98.10
4390;DHT22;2209;48.982;8.406;2023-07-31T00:05:43;21.30;98.00
4390;DHT22;2209;48.982;8.406;2023-07-31T00:08:05;21.30;98.00
4390;DHT22;2209;48.982;8.406;2023-07-31T00:10:27;21.20;98.00
4390;DHT22;2209;48.982;8.406;2023-07-31T00:12:49;21.20;98.10
4390;DHT22;2209;48.982;8.406;2023-07-31T00:15:12;21.20;98.20
4390;DHT22;2209;48.982;8.406;2023-07-31T00:17:36;21.10;98.30
4390;DHT22;2209;48.982;8.406;2023-07-31T00:20:12;21.10;98.30
4390;DHT22;2209;48.982;8.406;2023-07-31T00:22:34;21.10;98.40
4390;DHT22;2209;48.982;8.406;2023-07-31T00:24:57;21.10;98.40
4390;DHT22;2209;48.982;8.406;2023-07-31T00:27:20;21.20;98.30
4390;DHT22;2209;48.982;8.406;2023-07-31T00:29:42;21.20;98.30
4390;DHT22;2209;48.982;8.406;2023-07-31T00:32:05;21.20;98.20
4390;DHT22;2209;48.982;8.406;2023-07-31T00:34:29;21.20;98.30
4390;DHT22;2209;48.982;8.406;2023-07-31T00:36:51;21.20;98.30
4390;DHT22;2209;48.982;8.406;2023-07-31T00:39:13;21.20;98.30
4390;DHT22;2209;48.982;8.406;2023-07-31T00:41:35;21.20;98.30
4390;DHT22;2209;48.982;8.406;2023-07-31T00:43:57;21.10;98.30
4390;DHT22;2209;48.982;8.406;2023-07-31T00:46:20;21.10;98.30
4390;DHT22;2209;48.982;8.406;2023-07-31T00:48:42;21.10;98.30
4390;DHT22;2209;48.982;8.406;2023-07-31T00:51:06;21.10;98.40
4390;DHT22;2209;48.982;8.406;2023-07-31T00:53:28;21.00;98.30
4390;DHT22;2209;48.982;8.406;2023-07-31T00:55:51;21.00;98.30
4390;DHT22;2209;48.982;8.406;2023-07-31T00:58:14;20.90;98.30
4390;DHT22;2209;48.982;8.406;2023-07-31T01:00:36;20.90;98.40
4390;DHT22;2209;48.982;8.406;2023-07-31T01:02:58;20.90;98.40
4390;DHT22;2209;48.982;8.406;2023-07-31T01:05:25;20.90;98.50
4390;DHT22;2209;48.982;8.406;2023-07-31T01:07:54;20.80;98.40
4390;DHT22;2209;48.982;8.406;2023-07-31T01:10:21;20.80;98.50
4390;DHT22;2209;48.982;8.406;2023-07-31T01:12:45;20.80;98.40
4390;DHT22;2209;48.982;8.406;2023-07-31T01:15:08;20.70;98.50
4390;DHT22;2209;48.982;8.406;2023-07-31T01:17:31;20.70;98.50
4390;DHT22;2209;48.982;8.406;2023-07-31T01:19:54;20.70;98.50
4390;DHT22;2209;48.982;8.406;2023-07-31T01:22:31;20.70;98.50
4390;DHT22;2209;48.982;8.406;2023-07-31T01:25:11;20.70;98.40
4390;DHT22;2209;48.982;8.406;2023-07-31T01:27:43;20.70;98.30
4390;DHT22;2209;48.982;8.406;2023-07-31T01:30:11;20.70;98.30
4390;DHT22;2209;48.982;8.406;2023-07-31T01:32:35;20.60;98.30
4390;DHT22;2209;48.982;8.406;2023-07-31T01:34:59;20.60;98.30
4390;DHT22;2209;48.982;8.406;2023-07-31T01:37:21;20.60;98.30
4390;DHT22;2209;48.982;8.406;2023-07-31T01:39:43;20.60;98.30
4390;DHT22;2209;48.982;8.406;2023-07-31T01:42:06;20.60;98.30
4390;DHT22;2209;48.982;8.406;2023-07-31T01:44:29;20.60;98.20
4390;DHT22;2209;48.982;8.406;2023-07-31T01:46:51;20.60;98.20
4390;DHT22;2209;48.982;8.406;2023-07-31T01:49:13;20.60;98.20
4390;DHT22;2209;48.982;8.406;2023-07-31T01:51:34;20.60;98.20
4390;DHT22;2209;48.982;8.406;2023-07-31T01:53:56;20.60;98.20
4390;DHT22;2209;48.982;8.406;2023-07-31T01:56:18;20.60;98.20
4390;DHT22;2209;48.982;8.406;2023-07-31T01:58:41;20.50;98.20
4390;DHT22;2209;48.982;8.406;2023-07-31T02:01:04;20.50;98.00
4390;DHT22;2209;48.982;8.406;2023-07-31T02:03:26;20.50;97.90
4390;DHT22;2209;48.982;8.406;2023-07-31T02:05:49;20.50;98.00
4390;DHT22;2209;48.982;8.406;2023-07-31T02:08:11;20.50;98.00
4390;DHT22;2209;48.982;8.406;2023-07-31T02:10:33;20.50;98.00
4390;DHT22;2209;48.982;8.406;2023-07-31T02:12:55;20.50;98.00
4390;DHT22;2209;48.982;8.406;2023-07-31T02:15:18;20.50;98.00
4390;DHT22;2209;48.982;8.406;2023-07-31T02:17:41;20.40;97.90
4390;DHT22;2209;48.982;8.406;2023-07-31T02:20:04;20.50;98.00
4390;DHT22;2209;48.982;8.406;2023-07-31T02:22:27;20.50;97.90
4390;DHT22;2209;48.982;8.406;2023-07-31T02:24:49;20.50;97.90
4390;DHT22;2209;48.982;8.406;2023-07-31T02:27:11;20.40;97.80
4390;DHT22;2209;48.982;8.406;2023-07-31T02:29:33;20.40;97.90
4390;DHT22;2209;48.982;8.406;2023-07-31T02:31:55;20.40;97.90
4390;DHT22;2209;48.982;8.406;2023-07-31T02:34:18;20.40;97.90
4390;DHT22;2209;48.982;8.406;2023-07-31T02:36:40;20.40;97.90
4390;DHT22;2209;48.982;8.406;2023-07-31T02:39:02;20.40;97.90
4390;DHT22;2209;48.982;8.406;2023-07-31T02:41:24;20.40;97.80
4390;DHT22;2209;48.982;8.406;2023-07-31T02:43:46;20.40;97.80
4390;DHT22;2209;48.982;8.406;2023-07-31T02:46:09;20.40;97.90
4390;DHT22;2209;48.982;8.406;2023-07-31T02:48:32;20.40;97.80
4390;DHT22;2209;48.982;8.406;2023-07-31T02:50:55;20.30;97.90
4390;DHT22;2209;48.982;8.406;2023-07-31T02:53:17;20.30;97.90
4390;DHT22;2209;48.982;8.406;2023-07-31T02:55:40;20.40;97.90
4390;DHT22;2209;48.982;8.406;2023-07-31T02:58:02;20.40;97.80
4390;DHT22;2209;48.982;8.406;2023-07-31T03:00:24;20.40;97.90
4390;DHT22;2209;48.982;8.406;2023-07-31T03:02:46;20.40;97.90
4390;DHT22;2209;48.982;8.406;2023-07-31T03:05:08;20.50;97.80
4390;DHT22;2209;48.982;8.406;2023-07-31T03:07:32;20.40;97.70
4390;DHT22;2209;48.982;8.406;2023-07-31T03:09:54;20.40;97.70
4390;DHT22;2209;48.982;8.406;2023-07-31T03:12:16;20.40;97.80
4390;DHT22;2209;48.982;8.406;2023-07-31T03:14:38;20.40;97.80
4390;DHT22;2209;48.982;8.406;2023-07-31T03:17:00;20.40;97.80
4390;DHT22;2209;48.982;8.406;2023-07-31T03:19:22;20.40;97.80
4390;DHT22;2209;48.982;8.406;2023-07-31T03:21:44;20.40;97.70
4390;DHT22;2209;48.982;8.406;2023-07-31T03:24:08;20.50;97.80
4390;DHT22;2209;48.982;8.406;2023-07-31T03:26:31;20.40;97.60
4390;DHT22;2209;48.982;8.406;2023-07-31T03:28:53;20.40;97.60
4390;DHT22;2209;48.982;8.406;2023-07-31T03:31:15;20.40;97.80
4390;DHT22;2209;48.982;8.406;2023-07-31T03:33:37;20.30;97.80
4390;DHT22;2209;48.982;8.406;2023-07-31T03:35:59;20.30;97.80
4390;DHT22;2209;48.982;8.406;2023-07-31T03:38:22;20.30;97.90
4390;DHT22;2209;48.982;8.406;2023-07-31T03:40:46;20.20;97.80
4390;DHT22;2209;48.982;8.406;2023-07-31T03:43:08;20.20;97.90
4390;DHT22;2209;48.982;8.406;2023-07-31T03:45:30;20.20;97.90
4390;DHT22;2209;48.982;8.406;2023-07-31T03:47:52;20.20;97.90
4390;DHT22;2209;48.982;8.406;2023-07-31T03:50:15;20.20;97.90
4390;DHT22;2209;48.982;8.406;2023-07-31T03:52:37;20.10;97.90
4390;DHT22;2209;48.982;8.406;2023-07-31T03:54:59;20.10;97.90
4390;DHT22;2209;48.982;8.406;2023-07-31T03:57:23;20.10;97.90
4390;DHT22;2209;48.982;8.406;2023-07-31T03:59:45;20.00;97.90
4390;DHT22;2209;48.982;8.406;2023-07-31T04:02:07;20.00;98.00
4390;DHT22;2209;48.982;8.406;2023-07-31T04:04:29;20.00;98.00
4390;DHT22;2209;48.982;8.406;2023-07-31T04:06:51;20.00;98.10
4390;DHT22;2209;48.982;8.406;2023-07-31T04:09:13;19.90;98.10
4390;DHT22;2209;48.982;8.406;2023-07-31T04:11:35;20.00;98.20
4390;DHT22;2209;48.982;8.406;2023-07-31T04:13:58;20.00;98.20
4390;DHT22;2209;48.982;8.406;2023-07-31T04:16:20;20.00;98.20
4390;DHT22;2209;48.982;8.406;2023-07-31T04:18:42;19.90;98.30
4390;DHT22;2209;48.982;8.406;2023-07-31T04:21:04;19.90;98.30
4390;DHT22;2209;48.982;8.406;2023-07-31T04:23:26;19.80;98.40
4390;DHT22;2209;48.982;8.406;2023-07-31T04:25:49;19.80;98.50
4390;DHT22;2209;48.982;8.406;2023-07-31T04:28:11;19.80;98.60
4390;DHT22;2209;48.982;8.406;2023-07-31T04:30:34;19.80;98.60
4390;DHT22;2209;48.982;8.406;2023-07-31T04:32:57;19.80;98.70
4390;DHT22;2209;48.982;8.406;2023-07-31T04:35:19;19.80;98.70
4390;DHT22;2209;48.982;8.406;2023-07-31T04:37:41;19.80;98.80
4390;DHT22;2209;48.982;8.406;2023-07-31T04:40:03;19.70;98.70
4390;DHT22;2209;48.982;8.406;2023-07-31T04:42:26;19.70;98.80
4390;DHT22;2209;48.982;8.406;2023-07-31T04:44:48;19.70;98.90
4390;DHT22;2209;48.982;8.406;2023-07-31T04:47:11;19.70;98.90
4390;DHT22;2209;48.982;8.406;2023-07-31T04:49:33;19.70;98.90
4390;DHT22;2209;48.982;8.406;2023-07-31T04:51:55;19.70;98.90
4390;DHT22;2209;48.982;8.406;2023-07-31T04:54:20;19.70;98.90
4390;DHT22;2209;48.982;8.406;2023-07-31T04:56:42;19.70;99.00
4390;DHT22;2209;48.982;8.406;2023-07-31T04:59:05;19.70;99.00
4390;DHT22;2209;48.982;8.406;2023-07-31T05:01:28;19.70;99.00
4390;DHT22;2209;48.982;8.406;2023-07-31T05:03:51;19.70;99.10
4390;DHT22;2209;48.982;8.406;2023-07-31T05:06:13;19.60;99.00
4390;DHT22;2209;48.982;8.406;2023-07-31T05:08:36;19.60;99.10
4390;DHT22;2209;48.982;8.406;2023-07-31T05:10:58;19.60;99.20
4390;DHT22;2209;48.982;8.406;2023-07-31T05:13:20;19.60;99.20
4390;DHT22;2209;48.982;8.406;2023-07-31T05:15:42;19.60;99.20
4390;DHT22;2209;48.982;8.406;2023-07-31T05:18:04;19.60;99.20
4390;DHT22;2209;48.982;8.406;2023-07-31T05:20:27;19.60;99.30
4390;DHT22;2209;48.982;8.406;2023-07-31T05:22:50;19.70;99.40
4390;DHT22;2209;48.982;8.406;2023-07-31T05:25:13;19.70;99.30
4390;DHT22;2209;48.982;8.406;2023-07-31T05:27:35;19.70;99.30
4390;DHT22;2209;48.982;8.406;2023-07-31T05:29:57;19.70;99.20
4390;DHT22;2209;48.982;8.406;2023-07-31T05:32:19;19.80;99.20
4390;DHT22;2209;48.982;8.406;2023-07-31T05:34:41;19.80;99.30
4390;DHT22;2209;48.982;8.406;2023-07-31T05:37:05;19.80;99.30
4390;DHT22;2209;48.982;8.406;2023-07-31T05:39:27;19.80;99.30
4390;DHT22;2209;48.982;8.406;2023-07-31T05:41:49;19.80;99.40
4390;DHT22;2209;48.982;8.406;2023-07-31T05:44:11;19.80;99.40
4390;DHT22;2209;48.982;8.406;2023-07-31T05:46:34;19.70;99.50
4390;DHT22;2209;48.982;8.406;2023-07-31T05:48:56;19.70;99.50
4390;DHT22;2209;48.982;8.406;2023-07-31T05:51:18;19.70;99.60
4390;DHT22;2209;48.982;8.406;2023-07-31T05:53:41;19.70;99.60
4390;DHT22;2209;48.982;8.406;2023-07-31T05:56:04;19.80;99.70
4390;DHT22;2209;48.982;8.406;2023-07-31T05:58:26;19.80;99.50
4390;DHT22;2209;48.982;8.406;2023-07-31T06:00:48;19.80;99.60
4390;DHT22;2209;48.982;8.406;2023-07-31T06:03:10;19.80;99.60
4390;DHT22;2209;48.982;8.406;2023-07-31T06:05:32;19.80;99.70
4390;DHT22;2209;48.982;8.406;2023-07-31T06:07:55;19.80;99.60
4390;DHT22;2209;48.982;8.406;2023-07-31T06:10:18;19.80;99.60
4390;DHT22;2209;48.982;8.406;2023-07-31T06:12:43;19.90;99.60
4390;DHT22;2209;48.982;8.406;2023-07-31T06:15:06;19.90;99.50
4390;DHT22;2209;48.982;8.406;2023-07-31T06:17:29;19.90;99.50
4390;DHT22;2209;48.982;8.406;2023-07-31T06:19:55;19.90;99.50
4390;DHT22;2209;48.982;8.406;2023-07-31T06:22:18;19.90;99.50
4390;DHT22;2209;48.982;8.406;2023-07-31T06:24:43;19.90;99.60
4390;DHT22;2209;48.982;8.406;2023-07-31T06:27:24;19.90;99.40
4390;DHT22;2209;48.982;8.406;2023-07-31T06:29:46;20.00;99.50
4390;DHT22;2209;48.982;8.406;2023-07-31T06:32:08;20.00;99.50
4390;DHT22;2209;48.982;8.406;2023-07-31T06:34:31;20.00;99.50
4390;DHT22;2209;48.982;8.406;2023-07-31T06:36:53;20.00;99.50
4390;DHT22;2209;48.982;8.406;2023-07-31T06:39:15;20.10;99.60
4390;DHT22;2209;48.982;8.406;2023-07-31T06:41:37;20.10;99.40
4390;DHT22;2209;48.982;8.406;2023-07-31T06:44:01;20.10;99.60
4390;DHT22;2209;48.982;8.406;2023-07-31T06:46:23;20.10;99.70
4390;DHT22;2209;48.982;8.406;2023-07-31T06:48:45;20.20;99.80
4390;DHT22;2209;48.982;8.406;2023-07-31T06:51:07;20.20;99.80
4390;DHT22;2209;48.982;8.406;2023-07-31T06:53:29;20.20;99.70
4390;DHT22;2209;48.982;8.406;2023-07-31T06:55:51;20.20;99.70
4390;DHT22;2209;48.982;8.406;2023-07-31T06:58:13;20.10;99.80
4390;DHT22;2209;48.982;8.406;2023-07-31T07:00:37;20.10;99.70
4390;DHT22;2209;48.982;8.406;2023-07-31T07:02:59;20.10;99.70
4390;DHT22;2209;48.982;8.406;2023-07-31T07:05:21;20.10;99.80
4390;DHT22;2209;48.982;8.406;2023-07-31T07:07:44;20.10;99.70
4390;DHT22;2209;48.982;8.406;2023-07-31T07:10:07;20.10;99.70
4390;DHT22;2209;48.982;8.406;2023-07-31T07:12:30;20.00;99.70
4390;DHT22;2209;48.982;8.406;2023-07-31T07:14:53;20.10;99.80
4390;DHT22;2209;48.982;8.406;2023-07-31T07:17:16;20.10;99.80
4390;DHT22;2209;48.982;8.406;2023-07-31T07:19:40;20.10;99.80
4390;DHT22;2209;48.982;8.406;2023-07-31T07:22:02;20.10;99.80
4390;DHT22;2209;48.982;8.406;2023-07-31T07:24:25;20.10;99.60
4390;DHT22;2209;48.982;8.406;2023-07-31T07:26:47;20.10;99.60
4390;DHT22;2209;48.982;8.406;2023-07-31T07:29:09;20.10;99.50
4390;DHT22;2209;48.982;8.406;2023-07-31T07:31:31;20.10;99.50
4390;DHT22;2209;48.982;8.406;2023-07-31T07:33:55;20.20;99.40
4390;DHT22;2209;48.982;8.406;2023-07-31T07:36:31;20.20;99.30
4390;DHT22;2209;48.982;8.406;2023-07-31T07:39:09;20.20;99.20
4390;DHT22;2209;48.982;8.406;2023-07-31T07:41:32;20.20;99.20
4390;DHT22;2209;48.982;8.406;2023-07-31T07:43:54;20.20;99.20
4390;DHT22;2209;48.982;8.406;2023-07-31T07:46:16;20.20;99.10
4390;DHT22;2209;48.982;8.406;2023-07-31T07:48:38;20.20;99.20
4390;DHT22;2209;48.982;8.406;2023-07-31T07:51:02;20.20;99.30
4390;DHT22;2209;48.982;8.406;2023-07-31T07:53:24;20.20;99.30
4390;DHT22;2209;48.982;8.406;2023-07-31T07:55:46;20.20;99.10
4390;DHT22;2209;48.982;8.406;2023-07-31T07:58:08;20.30;99.30
4390;DHT22;2209;48.982;8.406;2023-07-31T08:00:30;20.30;99.10
4390;DHT22;2209;48.982;8.406;2023-07-31T08:02:52;20.30;99.20
4390;DHT22;2209;48.982;8.406;2023-07-31T08:05:14;20.30;99.30
4390;DHT22;2209;48.982;8.406;2023-07-31T08:07:39;20.30;99.30
4390;DHT22;2209;48.982;8.406;2023-07-31T08:10:01;20.40;99.30
4390;DHT22;2209;48.982;8.406;2023-07-31T08:12:23;20.40;99.20
4390;DHT22;2209;48.982;8.406;2023-07-31T08:14:46;20.40;99.20
4390;DHT22;2209;48.982;8.406;2023-07-31T08:17:08;20.40;99.30
4390;DHT22;2209;48.982;8.406;2023-07-31T08:19:30;20.40;99.20
4390;DHT22;2209;48.982;8.406;2023-07-31T08:21:52;20.40;99.00
4390;DHT22;2209;48.982;8.406;2023-07-31T08:24:16;20.40;98.90
4390;DHT22;2209;48.982;8.406;2023-07-31T08:26:38;20.40;98.90
4390;DHT22;2209;48.982;8.406;2023-07-31T08:29:01;20.40;99.00
4390;DHT22;2209;48.982;8.406;2023-07-31T08:31:23;20.40;98.70
4390;DHT22;2209;48.982;8.406;2023-07-31T08:33:45;20.40;99.00
4390;DHT22;2209;48.982;8.406;2023-07-31T08:36:10;20.40;99.30
4390;DHT22;2209;48.982;8.406;2023-07-31T08:38:32;20.40;99.30
4390;DHT22;2209;48.982;8.406;2023-07-31T08:40:57;20.40;99.20
4390;DHT22;2209;48.982;8.406;2023-07-31T08:43:20;20.40;99.40
4390;DHT22;2209;48.982;8.406;2023-07-31T08:45:44;20.50;99.20
4390;DHT22;2209;48.982;8.406;2023-07-31T08:48:09;20.50;99.40
4390;DHT22;2209;48.982;8.406;2023-07-31T08:50:33;20.50;99.20
4390;DHT22;2209;48.982;8.406;2023-07-31T08:53:02;20.50;99.20
4390;DHT22;2209;48.982;8.406;2023-07-31T08:55:24;20.50;99.00
4390;DHT22;2209;48.982;8.406;2023-07-31T08:57:50;20.40;99.50
4390;DHT22;2209;48.982;8.406;2023-07-31T09:00:14;20.50;99.60
4390;DHT22;2209;48.982;8.406;2023-07-31T09:02:38;20.40;99.60
4390;DHT22;2209;48.982;8.406;2023-07-31T09:05:03;20.50;99.90
4390;DHT22;2209;48.982;8.406;2023-07-31T09:07:27;20.60;99.50
4390;DHT22;2209;48.982;8.406;2023-07-31T09:09:52;20.60;99.50
4390;DHT22;2209;48.982;8.406;2023-07-31T09:12:28;20.60;99.10
4390;DHT22;2209;48.982;8.406;2023-07-31T09:14:52;20.60;98.80
4390;DHT22;2209;48.982;8.406;2023-07-31T09:17:29;20.60;98.80
4390;DHT22;2209;48.982;8.406;2023-07-31T09:19:54;20.60;99.10
4390;DHT22;2209;48.982;8.406;2023-07-31T09:22:16;20.60;99.00
4390;DHT22;2209;48.982;8.406;2023-07-31T09:24:39;20.60;99.10
4390;DHT22;2209;48.982;8.406;2023-07-31T09:27:15;20.60;98.90
4390;DHT22;2209;48.982;8.406;2023-07-31T09:29:37;20.70;99.10
4390;DHT22;2209;48.982;8.406;2023-07-31T09:32:01;20.70;98.90
4390;DHT22;2209;48.982;8.406;2023-07-31T09:34:29;20.70;99.20
4390;DHT22;2209;48.982;8.406;2023-07-31T09:36:52;20.80;98.80
4390;DHT22;2209;48.982;8.406;2023-07-31T09:39:17;20.80;98.50
4390;DHT22;2209;48.982;8.406;2023-07-31T09:41:43;20.90;98.80
4390;DHT22;2209;48.982;8.406;2023-07-31T09:44:05;20.90;98.70
4390;DHT22;2209;48.982;8.406;2023-07-31T09:46:27;21.00;98.50
4390;DHT22;2209;48.982;8.406;2023-07-31T09:48:53;21.00;98.80
4390;DHT22;2209;48.982;8.406;2023-07-31T09:51:26;21.10;98.60
4390;DHT22;2209;48.982;8.406;2023-07-31T09:53:50;21.10;98.80
4390;DHT22;2209;48.982;8.406;2023-07-31T09:56:14;21.10;98.80
4390;DHT22;2209;48.982;8.406;2023-07-31T09:58:38;21.10;98.30
4390;DHT22;2209;48.982;8.406;2023-07-31T10:01:02;21.20;98.40
4390;DHT22;2209;48.982;8.406;2023-07-31T10:03:26;21.20;98.20
4390;DHT22;2209;48.982;8.406;2023-07-31T10:05:52;21.20;98.50
4390;DHT22;2209;48.982;8.406;2023-07-31T10:08:16;21.20;98.30
4390;DHT22;2209;48.982;8.406;2023-07-31T10:10:44;21.20;98.50
4390;DHT22;2209;48.982;8.406;2023-07-31T10:13:09;21.20;98.40
4390;DHT22;2209;48.982;8.406;2023-07-31T10:15:32;21.30;98.50
4390;DHT22;2209;48.982;8.406;2023-07-31T10:17:54;21.30;98.20
4390;DHT22;2209;48.982;8.406;2023-07-31T10:20:17;21.30;98.10
4390;DHT22;2209;48.982;8.406;2023-07-31T10:22:41;21.30;98.50
4390;DHT22;2209;48.982;8.406;2023-07-31T10:25:04;21.40;98.50
4390;DHT22;2209;48.982;8.406;2023-07-31T10:27:29;21.50;98.60
4390;DHT22;2209;48.982;8.406;2023-07-31T10:29:52;21.50;99.00
4390;DHT22;2209;48.982;8.406;2023-07-31T10:32:15;21.50;98.40
4390;DHT22;2209;48.982;8.406;2023-07-31T10:34:40;21.50;98.10
4390;DHT22;2209;48.982;8.406;2023-07-31T10:37:21;21.50;98.40
4390;DHT22;2209;48.982;8.406;2023-07-31T10:39:55;21.50;98.40
4390;DHT22;2209;48.982;8.406;2023-07-31T10:42:27;21.60;98.50
4390;DHT22;2209;48.982;8.406;2023-07-31T10:44:49;21.60;98.60
4390;DHT22;2209;48.982;8.406;2023-07-31T10:47:14;21.60;98.50
4390;DHT22;2209;48.982;8.406;2023-07-31T10:49:39;21.60;98.60
4390;DHT22;2209;48.982;8.406;2023-07-31T10:52:03;21.60;98.70
4390;DHT22;2209;48.982;8.406;2023-07-31T10:54:27;21.60;98.60
4390;DHT22;2209;48.982;8.406;2023-07-31T10:56:51;21.60;98.60
4390;DHT22;2209;48.982;8.406;2023-07-31T10:59:14;21.60;98.70
4390;DHT22;2209;48.982;8.406;2023-07-31T11:01:50;21.60;98.50
4390;DHT22;2209;48.982;8.406;2023-07-31T11:04:12;21.70;98.20
4390;DHT22;2209;48.982;8.406;2023-07-31T11:06:36;21.70;98.10
4390;DHT22;2209;48.982;8.406;2023-07-31T11:08:58;21.70;98.20
4390;DHT22;2209;48.982;8.406;2023-07-31T11:11:21;21.70;98.30
4390;DHT22;2209;48.982;8.406;2023-07-31T11:13:45;21.70;98.50
4390;DHT22;2209;48.982;8.406;2023-07-31T11:16:11;21.70;98.60
4390;DHT22;2209;48.982;8.406;2023-07-31T11:18:33;21.70;98.20
4390;DHT22;2209;48.982;8.406;2023-07-31T11:20:55;21.70;97.90
4390;DHT22;2209;48.982;8.406;2023-07-31T11:23:18;21.60;98.00
4390;DHT22;2209;48.982;8.406;2023-07-31T11:25:43;21.70;98.20
4390;DHT22;2209;48.982;8.406;2023-07-31T11:28:07;21.70;98.00
4390;DHT22;2209;48.982;8.406;2023-07-31T11:30:30;21.70;98.30
4390;DHT22;2209;48.982;8.406;2023-07-31T11:32:52;21.80;98.50
4390;DHT22;2209;48.982;8.406;2023-07-31T11:35:16;21.80;98.30
4390;DHT22;2209;48.982;8.406;2023-07-31T11:37:39;21.90;98.40
4390;DHT22;2209;48.982;8.406;2023-07-31T11:40:02;21.90;98.20
4390;DHT22;2209;48.982;8.406;2023-07-31T11:42:24;21.90;97.90
4390;DHT22;2209;48.982;8.406;2023-07-31T11:44:46;22.00;98.00
4390;DHT22;2209;48.982;8.406;2023-07-31T11:47:10;22.00;97.90
4390;DHT22;2209;48.982;8.406;2023-07-31T11:49:36;22.00;98.10
4390;DHT22;2209;48.982;8.406;2023-07-31T11:51:58;22.00;98.00
4390;DHT22;2209;48.982;8.406;2023-07-31T11:54:21;22.10;98.20
4390;DHT22;2209;48.982;8.406;2023-07-31T11:56:43;22.10;98.00
4390;DHT22;2209;48.982;8.406;2023-07-31T11:59:06;22.10;97.60
4390;DHT22;2209;48.982;8.406;2023-07-31T12:01:31;22.10;97.50
4390;DHT22;2209;48.982;8.406;2023-07-31T12:03:55;22.10;98.50
4390;DHT22;2209;48.982;8.406;2023-07-31T12:06:18;22.00;97.90
4390;DHT22;2209;48.982;8.406;2023-07-31T12:08:41;22.00;98.30
4390;DHT22;2209;48.982;8.406;2023-07-31T12:11:05;22.00;98.40
4390;DHT22;2209;48.982;8.406;2023-07-31T12:13:27;22.00;98.80
4390;DHT22;2209;48.982;8.406;2023-07-31T12:15:54;22.00;99.10
4390;DHT22;2209;48.982;8.406;2023-07-31T12:18:19;22.00;98.50
4390;DHT22;2209;48.982;8.406;2023-07-31T12:20:45;22.10;98.30
4390;DHT22;2209;48.982;8.406;2023-07-31T12:23:13;22.10;98.30
4390;DHT22;2209;48.982;8.406;2023-07-31T12:25:35;22.20;98.10
4390;DHT22;2209;48.982;8.406;2023-07-31T12:27:58;22.20;98.30
4390;DHT22;2209;48.982;8.406;2023-07-31T12:30:29;22.20;98.20
4390;DHT22;2209;48.982;8.406;2023-07-31T12:32:51;22.30;98.60
4390;DHT22;2209;48.982;8.406;2023-07-31T12:35:13;22.30;98.10
4390;DHT22;2209;48.982;8.406;2023-07-31T12:37:36;22.30;98.30
4390;DHT22;2209;48.982;8.406;2023-07-31T12:39:59;22.30;98.20
4390;DHT22;2209;48.982;8.406;2023-07-31T12:42:25;22.40;98.40
4390;DHT22;2209;48.982;8.406;2023-07-31T12:44:49;22.40;98.30
4390;DHT22;2209;48.982;8.406;2023-07-31T12:47:11;22.50;98.30
4390;DHT22;2209;48.982;8.406;2023-07-31T12:49:33;22.50;98.20
4390;DHT22;2209;48.982;8.406;2023-07-31T12:51:55;22.50;98.20
4390;DHT22;2209;48.982;8.406;2023-07-31T12:54:18;22.50;98.40
4390;DHT22;2209;48.982;8.406;2023-07-31T12:56:40;22.50;98.30
4390;DHT22;2209;48.982;8.406;2023-07-31T12:59:02;22.50;98.20
4390;DHT22;2209;48.982;8.406;2023-07-31T13:01:25;22.50;98.30
4390;DHT22;2209;48.982;8.406;2023-07-31T13:03:49;22.50;98.20
4390;DHT22;2209;48.982;8.406;2023-07-31T13:06:11;22.60;98.30
4390;DHT22;2209;48.982;8.406;2023-07-31T13:08:39;22.60;98.00
4390;DHT22;2209;48.982;8.406;2023-07-31T13:11:03;22.60;97.80
4390;DHT22;2209;48.982;8.406;2023-07-31T13:13:27;22.60;97.80
4390;DHT22;2209;48.982;8.406;2023-07-31T13:15:50;22.70;98.10
4390;DHT22;2209;48.982;8.406;2023-07-31T13:18:12;22.70;98.10
4390;DHT22;2209;48.982;8.406;2023-07-31T13:20:34;22.70;98.10
4390;DHT22;2209;48.982;8.406;2023-07-31T13:22:59;22.70;98.00
4390;DHT22;2209;48.982;8.406;2023-07-31T13:25:21;22.70;97.80
4390;DHT22;2209;48.982;8.406;2023-07-31T13:27:45;22.70;98.00
4390;DHT22;2209;48.982;8.406;2023-07-31T13:30:08;22.70;98.30
4390;DHT22;2209;48.982;8.406;2023-07-31T13:32:30;22.80;98.40
4390;DHT22;2209;48.982;8.406;2023-07-31T13:34:52;22.70;98.30
4390;DHT22;2209;48.982;8.406;2023-07-31T13:37:14;22.70;98.30
4390;DHT22;2209;48.982;8.406;2023-07-31T13:39:37;22.70;98.30
4390;DHT22;2209;48.982;8.406;2023-07-31T13:41:59;22.70;98.40
4390;DHT22;2209;48.982;8.406;2023-07-31T13:44:22;22.70;98.40
4390;DHT22;2209;48.982;8.406;2023-07-31T13:46:44;22.60;98.60
4390;DHT22;2209;48.982;8.406;2023-07-31T13:49:06;22.60;98.40
4390;DHT22;2209;48.982;8.406;2023-07-31T13:51:29;22.70;98.90
4390;DHT22;2209;48.982;8.406;2023-07-31T13:53:51;22.70;98.80
4390;DHT22;2209;48.982;8.406;2023-07-31T13:56:13;22.70;98.90
4390;DHT22;2209;48.982;8.406;2023-07-31T13:58:37;22.70;98.90
4390;DHT22;2209;48.982;8.406;2023-07-31T14:01:03;22.80;99.10
4390;DHT22;2209;48.982;8.406;2023-07-31T14:03:27;22.80;99.10
4390;DHT22;2209;48.982;8.406;2023-07-31T14:05:51;22.80;98.70
4390;DHT22;2209;48.982;8.406;2023-07-31T14:08:14;22.80;98.60
4390;DHT22;2209;48.982;8.406;2023-07-31T14:10:36;22.90;98.60
4390;DHT22;2209;48.982;8.406;2023-07-31T14:12:58;22.90;98.60
4390;DHT22;2209;48.982;8.406;2023-07-31T14:15:20;22.90;98.50
4390;DHT22;2209;48.982;8.406;2023-07-31T14:17:43;22.90;98.60
4390;DHT22;2209;48.982;8.406;2023-07-31T14:20:07;22.90;98.60
4390;DHT22;2209;48.982;8.406;2023-07-31T14:22:29;22.80;98.60
4390;DHT22;2209;48.982;8.406;2023-07-31T14:24:52;22.80;98.80
4390;DHT22;2209;48.982;8.406;2023-07-31T14:27:17;22.70;98.50
4390;DHT22;2209;48.982;8.406;2023-07-31T14:29:41;22.70;98.50
4390;DHT22;2209;48.982;8.406;2023-07-31T14:32:04;22.70;98.50
4390;DHT22;2209;48.982;8.406;2023-07-31T14:34:33;22.70;98.70
4390;DHT22;2209;48.982;8.406;2023-07-31T14:36:56;22.70;98.80
4390;DHT22;2209;48.982;8.406;2023-07-31T14:39:18;22.70;98.80
4390;DHT22;2209;48.982;8.406;2023-07-31T14:41:40;22.70;98.80
4390;DHT22;2209;48.982;8.406;2023-07-31T14:44:02;22.70;98.90
4390;DHT22;2209;48.982;8.406;2023-07-31T14:46:24;22.70;98.80
4390;DHT22;2209;48.982;8.406;2023-07-31T14:48:47;22.80;98.80
4390;DHT22;2209;48.982;8.406;2023-07-31T14:51:10;22.80;98.80
4390;DHT22;2209;48.982;8.406;2023-07-31T14:53:32;22.90;99.00
4390;DHT22;2209;48.982;8.406;2023-07-31T14:55:56;22.90;99.10
4390;DHT22;2209;48.982;8.406;2023-07-31T14:58:18;23.00;98.80
4390;DHT22;2209;48.982;8.406;2023-07-31T15:00:40;23.00;98.70
4390;DHT22;2209;48.982;8.406;2023-07-31T15:03:03;23.00;98.80
4390;DHT22;2209;48.982;8.406;2023-07-31T15:05:25;23.10;98.80
4390;DHT22;2209;48.982;8.406;2023-07-31T15:07:48;23.10;98.50
4390;DHT22;2209;48.982;8.406;2023-07-31T15:10:10;23.10;98.60
4390;DHT22;2209;48.982;8.406;2023-07-31T15:12:32;23.20;98.60
4390;DHT22;2209;48.982;8.406;2023-07-31T15:14:55;23.20;98.80
4390;DHT22;2209;48.982;8.406;2023-07-31T15:17:17;23.20;98.70
4390;DHT22;2209;48.982;8.406;2023-07-31T15:19:42;23.30;98.60
4390;DHT22;2209;48.982;8.406;2023-07-31T15:22:04;23.40;98.60
4390;DHT22;2209;48.982;8.406;2023-07-31T15:24:28;23.40;98.70
4390;DHT22;2209;48.982;8.406;2023-07-31T15:26:50;23.50;98.50
4390;DHT22;2209;48.982;8.406;2023-07-31T15:29:12;23.60;98.40
4390;DHT22;2209;48.982;8.406;2023-07-31T15:31:40;23.70;98.40
4390;DHT22;2209;48.982;8.406;2023-07-31T15:34:03;23.70;98.50
4390;DHT22;2209;48.982;8.406;2023-07-31T15:36:39;23.70;98.80